createdAt,value
2018-08-30T00:02:10.826Z,95731.47
2018-08-30T00:04:42.868Z,95738.23
2018-08-30T00:07:12.065Z,95733.17
2018-08-30T00:09:41.258Z,95730.61
2018-08-30T00:12:11.024Z,95725.80
2018-08-30T00:14:40.216Z,95727.36
2018-08-30T00:17:09.328Z,95735.07
2018-08-30T00:19:38.432Z,95724.13
2018-08-30T00:22:07.944Z,95726.89
2018-08-30T00:24:37.093Z,95721.62
2018-08-30T00:27:06.416Z,95730.07
2018-08-30T00:29:35.533Z,95723.59
2018-08-30T00:32:04.702Z,95727.16
2018-08-30T00:34:33.904Z,95730.73
2018-08-30T00:37:02.988Z,95726.66
2018-08-30T00:39:32.100Z,95724.92
2018-08-30T00:42:01.287Z,95722.57
2018-08-30T00:44:30.443Z,95722.08
2018-08-30T00:46:59.535Z,95723.85
2018-08-30T00:49:28.678Z,95730.85
2018-08-30T00:51:57.786Z,95727.74
2018-08-30T00:54:26.944Z,95724.05
2018-08-30T00:56:56.061Z,95727.38
2018-08-30T00:59:25.165Z,95727.59
2018-08-30T01:01:54.247Z,95726.66
2018-08-30T01:04:23.379Z,95728.41
2018-08-30T01:06:52.460Z,95730.28
2018-08-30T01:09:21.722Z,95734.33
2018-08-30T01:11:50.831Z,95735.04
2018-08-30T01:14:19.988Z,95730.90
2018-08-30T01:16:49.100Z,95731.86
2018-08-30T01:19:18.211Z,95731.15
2018-08-30T01:21:47.304Z,95727.89
2018-08-30T01:24:16.416Z,95727.83
2018-08-30T01:26:45.628Z,95730.34
2018-08-30T01:29:14.732Z,95740.39
2018-08-30T01:31:43.916Z,95735.54
2018-08-30T01:34:13.794Z,95727.97
2018-08-30T01:36:44.147Z,95729.97
2018-08-30T01:39:13.290Z,95728.52
2018-08-30T01:41:43.450Z,95734.25
2018-08-30T01:44:13.667Z,95733.84
2018-08-30T01:46:42.925Z,95730.93
2018-08-30T01:49:12.025Z,95740.13
2018-08-30T01:51:41.206Z,95738.86
2018-08-30T01:54:10.408Z,95742.80
2018-08-30T01:56:39.528Z,95746.45
2018-08-30T01:59:08.660Z,95736.95
2018-08-30T02:01:37.782Z,95747.44
2018-08-30T02:04:06.902Z,95734.50
2018-08-30T02:06:36.084Z,95735.17
2018-08-30T02:09:06.417Z,95734.50
2018-08-30T02:11:35.559Z,95735.91
2018-08-30T02:14:04.683Z,95731.03
2018-08-30T02:16:33.776Z,95733.08
2018-08-30T02:19:02.879Z,95734.83
2018-08-30T02:21:31.979Z,95733.79
2018-08-30T02:24:01.203Z,95736.84
2018-08-30T02:26:30.355Z,95733.30
2018-08-30T02:28:59.490Z,95736.50
2018-08-30T02:31:28.608Z,95733.59
2018-08-30T02:33:57.779Z,95740.13
2018-08-30T02:36:26.908Z,95735.84
2018-08-30T02:38:55.961Z,95746.11
2018-08-30T02:41:25.116Z,95747.36
2018-08-30T02:43:54.247Z,95746.31
2018-08-30T02:46:23.337Z,95739.06
2018-08-30T02:48:52.638Z,95746.67
2018-08-30T02:51:21.809Z,95741.80
2018-08-30T02:53:51.025Z,95741.45
2018-08-30T02:56:20.129Z,95745.84
2018-08-30T02:58:49.518Z,95746.83
2018-08-30T03:01:18.800Z,95746.02
2018-08-30T03:03:47.929Z,95747.17
2018-08-30T03:06:17.102Z,95748.87
2018-08-30T03:08:46.232Z,95746.45
2018-08-30T03:11:15.376Z,95746.76
2018-08-30T03:13:44.500Z,95752.49
2018-08-30T03:16:13.664Z,95759.81
2018-08-30T03:18:42.808Z,95755.06
2018-08-30T03:21:11.988Z,95765.13
2018-08-30T03:23:41.620Z,95760.17
2018-08-30T03:26:10.772Z,95761.80
2018-08-30T03:28:39.868Z,95761.80
2018-08-30T03:31:08.999Z,95756.61
2018-08-30T03:33:38.106Z,95762.94
2018-08-30T03:36:07.278Z,95769.92
2018-08-30T03:38:36.369Z,95762.27
2018-08-30T03:41:05.675Z,95769.52
2018-08-30T03:43:34.853Z,95767.48
2018-08-30T03:46:03.963Z,95771.87
2018-08-30T03:48:33.041Z,95771.22
2018-08-30T03:51:02.175Z,95775.70
2018-08-30T03:53:31.533Z,95768.80
2018-08-30T03:56:00.665Z,95779.84
2018-08-30T03:58:29.761Z,95778.58
2018-08-30T04:00:58.872Z,95774.34
2018-08-30T04:03:27.968Z,95776.34
2018-08-30T04:05:57.072Z,95781.48
2018-08-30T04:08:26.252Z,95780.67
2018-08-30T04:10:55.432Z,95780.83
2018-08-30T04:13:24.567Z,95786.50
2018-08-30T04:15:53.691Z,95785.37
2018-08-30T04:18:22.905Z,95781.29
2018-08-30T04:20:52.118Z,95781.29
2018-08-30T04:23:21.215Z,95786.09
2018-08-30T04:25:50.486Z,95790.99
2018-08-30T04:28:19.541Z,95795.70
2018-08-30T04:30:48.666Z,95795.04
2018-08-30T04:33:17.743Z,95788.08
2018-08-30T04:35:46.856Z,95804.94
2018-08-30T04:38:15.959Z,95811.38
2018-08-30T04:40:45.076Z,95805.77
2018-08-30T04:43:14.370Z,95812.56
2018-08-30T04:45:43.470Z,95812.02
2018-08-30T04:48:12.658Z,95810.14
2018-08-30T04:50:41.909Z,95810.72
2018-08-30T04:53:11.077Z,95813.95
2018-08-30T04:55:40.154Z,95814.29
2018-08-30T04:58:09.420Z,95819.39
2018-08-30T05:00:38.565Z,95817.61
2018-08-30T05:03:07.658Z,95814.61
2018-08-30T05:05:36.779Z,95818.03
2018-08-30T05:08:06.056Z,95816.87
2018-08-30T05:10:35.353Z,95822.48
2018-08-30T05:13:04.470Z,95823.93
2018-08-30T05:15:33.889Z,95828.90
2018-08-30T05:18:03.028Z,95828.38
2018-08-30T05:20:32.129Z,95836.99
2018-08-30T05:23:01.503Z,95842.59
2018-08-30T05:25:30.756Z,95835.78
2018-08-30T05:27:59.839Z,95845.52
2018-08-30T05:30:29.023Z,95848.67
2018-08-30T05:32:58.171Z,95857.81
2018-08-30T05:35:27.256Z,95859.59
2018-08-30T05:37:56.365Z,95866.11
2018-08-30T05:40:25.861Z,95861.08
2018-08-30T05:42:55.015Z,95866.67
2018-08-30T05:45:24.212Z,95862.77
2018-08-30T05:47:53.425Z,95869.82
2018-08-30T05:50:22.604Z,95866.02
2018-08-30T05:52:51.829Z,95868.84
2018-08-30T05:55:20.953Z,95873.62
2018-08-30T05:57:50.093Z,95877.62
2018-08-30T06:00:19.233Z,95871.34
2018-08-30T06:02:48.380Z,95878.66
2018-08-30T06:05:17.496Z,95877.67
2018-08-30T06:07:46.689Z,95884.70
2018-08-30T06:10:15.784Z,95886.90
2018-08-30T06:12:44.908Z,95889.01
2018-08-30T06:15:14.084Z,95885.52
2018-08-30T06:17:43.216Z,95884.23
2018-08-30T06:20:12.533Z,95889.09
2018-08-30T06:22:41.660Z,95894.41
2018-08-30T06:25:10.766Z,95898.70
2018-08-30T06:27:39.876Z,95898.92
2018-08-30T06:30:08.996Z,95900.81
2018-08-30T06:32:38.210Z,95903.30
2018-08-30T06:35:07.468Z,95904.73
2018-08-30T06:37:36.537Z,95912.78
2018-08-30T06:40:05.717Z,95913.34
2018-08-30T06:42:34.861Z,95909.47
2018-08-30T06:45:03.975Z,95909.90
2018-08-30T06:47:33.081Z,95914.25
2018-08-30T06:50:02.371Z,95919.19
2018-08-30T06:52:31.573Z,95919.84
2018-08-30T06:55:00.749Z,95922.55
2018-08-30T06:57:29.891Z,95929.61
2018-08-30T06:59:59.005Z,95934.13
2018-08-30T07:02:28.132Z,95933.36
2018-08-30T07:04:57.214Z,95936.01
2018-08-30T07:07:26.464Z,95940.67
2018-08-30T07:09:55.622Z,95949.31
2018-08-30T07:12:25.425Z,95945.71
2018-08-30T07:14:54.639Z,95949.64
2018-08-30T07:17:23.887Z,95950.92
2018-08-30T07:19:53.034Z,95956.71
2018-08-30T07:22:22.380Z,95953.14
2018-08-30T07:24:51.576Z,95951.20
2018-08-30T07:27:20.923Z,95949.34
2018-08-30T07:29:49.988Z,95956.52
2018-08-30T07:32:19.177Z,95955.35
2018-08-30T07:34:48.392Z,95961.12
2018-08-30T07:37:17.493Z,95960.94
2018-08-30T07:39:46.712Z,95962.03
2018-08-30T07:42:15.821Z,95958.98
2018-08-30T07:44:44.969Z,95965.98
2018-08-30T07:47:14.126Z,95964.76
2018-08-30T07:49:43.188Z,95970.75
2018-08-30T07:52:12.396Z,95972.73
2018-08-30T07:54:41.705Z,95969.93
2018-08-30T07:57:10.832Z,95971.48
2018-08-30T07:59:39.906Z,95975.95
2018-08-30T08:02:09.065Z,95974.56
2018-08-30T08:04:38.159Z,95980.81
2018-08-30T08:07:07.318Z,95980.28
2018-08-30T08:09:36.407Z,95980.34
2018-08-30T08:12:05.558Z,95981.97
2018-08-30T08:14:34.708Z,95979.09
2018-08-30T08:17:03.869Z,95984.56
2018-08-30T08:19:33.021Z,95982.77
2018-08-30T08:22:02.148Z,95982.55
2018-08-30T08:24:31.249Z,95979.50
2018-08-30T08:27:00.421Z,95987.98
2018-08-30T08:29:29.528Z,95992.41
2018-08-30T08:31:58.644Z,95987.84
2018-08-30T08:34:27.764Z,95996.34
2018-08-30T08:36:56.848Z,95999.86
2018-08-30T08:39:26.014Z,96002.11
2018-08-30T08:41:55.138Z,96008.91
2018-08-30T08:44:24.553Z,96007.33
2018-08-30T08:46:53.692Z,96011.80
2018-08-30T08:49:23.048Z,96012.62
2018-08-30T08:51:52.172Z,96013.48
2018-08-30T08:54:21.294Z,96016.75
2018-08-30T08:56:50.372Z,96015.13
2018-08-30T08:59:19.742Z,96018.13
2018-08-30T09:01:48.776Z,96018.05
2018-08-30T09:04:17.896Z,96010.59
2018-08-30T09:06:46.986Z,96018.14
2018-08-30T09:09:16.146Z,96021.92
2018-08-30T09:11:45.261Z,96015.42
2018-08-30T09:14:14.487Z,96033.64
2018-08-30T09:16:43.631Z,96027.62
2018-08-30T09:19:12.737Z,96026.19
2018-08-30T09:21:41.827Z,96031.97
2018-08-30T09:24:11.128Z,96034.70
2018-08-30T09:26:40.237Z,96045.45
2018-08-30T09:29:09.762Z,96047.50
2018-08-30T09:31:38.869Z,96041.84
2018-08-30T09:34:07.992Z,96041.29
2018-08-30T09:36:37.112Z,96042.86
2018-08-30T09:39:08.133Z,96048.28
2018-08-30T09:41:37.310Z,96048.87
2018-08-30T09:44:06.531Z,96040.09
2018-08-30T09:46:35.670Z,96035.39
2018-08-30T09:49:05.159Z,96037.17
2018-08-30T09:51:34.457Z,96036.68
2018-08-30T09:54:03.572Z,96037.91
2018-08-30T09:56:32.737Z,96036.58
2018-08-30T09:59:01.862Z,96032.84
2018-08-30T10:01:36.505Z,96031.97
2018-08-30T10:04:05.685Z,96040.31
2018-08-30T10:06:34.777Z,96039.28
2018-08-30T10:09:04.817Z,96043.68
2018-08-30T10:11:33.897Z,96042.86
2018-08-30T10:14:03.080Z,96039.34
2018-08-30T10:16:32.421Z,96034.58
2018-08-30T10:19:01.613Z,96036.77
2018-08-30T10:21:30.827Z,96042.20
2018-08-30T10:23:59.989Z,96031.25
2018-08-30T10:26:29.148Z,96037.91
2018-08-30T10:28:58.291Z,96047.91
2018-08-30T10:31:28.452Z,96043.11
2018-08-30T10:33:57.498Z,96036.36
2018-08-30T10:36:26.676Z,96045.37
2018-08-30T10:38:55.796Z,96037.24
2018-08-30T10:41:24.972Z,96032.58
2018-08-30T10:43:54.179Z,96042.60
2018-08-30T10:46:23.773Z,96038.95
2018-08-30T10:48:53.532Z,96032.31
2018-08-30T10:51:22.681Z,96031.91
2018-08-30T10:53:51.891Z,96033.80
2018-08-30T10:56:21.108Z,96023.82
2018-08-30T10:58:51.107Z,96034.66
2018-08-30T11:01:20.277Z,96030.83
2018-08-30T11:03:49.460Z,96035.08
2018-08-30T11:06:18.530Z,96032.53
2018-08-30T11:08:47.660Z,96036.22
2018-08-30T11:11:16.738Z,96029.87
2018-08-30T11:13:46.256Z,96029.39
2018-08-30T11:16:15.343Z,96035.84
2018-08-30T11:18:44.444Z,96036.20
2018-08-30T11:21:13.535Z,96029.74
2018-08-30T11:23:42.647Z,96035.13
2018-08-30T11:26:11.746Z,96040.73
2018-08-30T11:28:40.880Z,96039.47
2018-08-30T11:31:10.132Z,96038.83
2018-08-30T11:33:39.229Z,96050.98
2018-08-30T11:36:08.389Z,96043.23
2018-08-30T11:38:37.496Z,96046.70
2018-08-30T11:41:06.652Z,96044.38
2018-08-30T11:43:35.730Z,96048.73
2018-08-30T11:46:04.887Z,96046.58
2018-08-30T11:48:34.309Z,96047.91
2018-08-30T11:51:03.456Z,96054.78
2018-08-30T11:53:32.641Z,96048.21
2018-08-30T11:56:01.802Z,96050.48
2018-08-30T11:58:30.897Z,96050.39
2018-08-30T12:00:59.997Z,96052.52
2018-08-30T12:03:29.364Z,96060.13
2018-08-30T12:05:58.473Z,96057.91
2018-08-30T12:08:27.644Z,96057.56
2018-08-30T12:10:56.887Z,96064.37
2018-08-30T12:13:25.937Z,96057.00
2018-08-30T12:15:55.005Z,96059.65
2018-08-30T12:18:24.167Z,96062.63
2018-08-30T12:20:53.379Z,96058.23
2018-08-30T12:23:22.500Z,96066.67
2018-08-30T12:25:51.687Z,96070.31
2018-08-30T12:28:20.875Z,96071.95
2018-08-30T12:30:49.989Z,96071.48
2018-08-30T12:33:19.296Z,96067.11
2018-08-30T12:35:48.511Z,96064.42
2018-08-30T12:38:18.130Z,96068.20
2018-08-30T12:40:47.284Z,96069.66
2018-08-30T12:43:16.462Z,96062.84
2018-08-30T12:45:45.628Z,96061.66
2018-08-30T12:48:14.692Z,96060.09
2018-08-30T12:50:44.091Z,96065.38
2018-08-30T12:53:13.303Z,96070.71
2018-08-30T12:55:42.389Z,96068.61
2018-08-30T12:58:11.491Z,96065.55
2018-08-30T13:00:40.522Z,96066.22
2018-08-30T13:03:09.784Z,96061.10
2018-08-30T13:05:39.091Z,96055.67
2018-08-30T13:08:08.043Z,96062.27
2018-08-30T13:10:37.195Z,96066.89
2018-08-30T13:13:06.605Z,96061.61
2018-08-30T13:15:35.604Z,96068.36
2018-08-30T13:18:04.739Z,96067.08
2018-08-30T13:20:34.066Z,96070.25
2018-08-30T13:23:03.523Z,96064.62
2018-08-30T13:25:32.779Z,96065.63
2018-08-30T13:28:01.792Z,96064.62
2018-08-30T13:30:31.048Z,96066.57
2018-08-30T13:33:00.206Z,96064.78
2018-08-30T13:35:29.257Z,96062.99
2018-08-30T13:37:58.690Z,96068.70
2018-08-30T13:40:27.713Z,96062.68
2018-08-30T13:42:56.915Z,96064.97
2018-08-30T13:45:26.073Z,96065.79
2018-08-30T13:47:55.232Z,96066.27
2018-08-30T13:50:24.384Z,96061.23
2018-08-30T13:52:53.713Z,96061.39
2018-08-30T13:55:23.002Z,96060.73
2018-08-30T13:57:52.557Z,96064.06
2018-08-30T14:00:21.598Z,96067.30
2018-08-30T14:02:50.459Z,96063.66
2018-08-30T14:05:19.562Z,96065.59
2018-08-30T14:07:48.616Z,96073.98
2018-08-30T14:10:17.859Z,96074.88
2018-08-30T14:12:46.945Z,96077.79
2018-08-30T14:15:16.309Z,96078.16
2018-08-30T14:17:45.050Z,96074.72
2018-08-30T14:20:14.383Z,96075.97
2018-08-30T14:22:43.450Z,96077.44
2018-08-30T14:25:12.568Z,96069.56
2018-08-30T14:27:42.160Z,96070.28
2018-08-30T14:30:11.370Z,96065.98
2018-08-30T14:32:40.512Z,96061.22
2018-08-30T14:35:09.563Z,96058.77
2018-08-30T14:37:38.847Z,96059.09
2018-08-30T14:40:07.963Z,96058.08
2018-08-30T14:42:37.030Z,96057.11
2018-08-30T14:45:06.350Z,96063.55
2018-08-30T14:47:35.722Z,96064.98
2018-08-30T14:50:04.855Z,96061.66
2018-08-30T14:52:34.042Z,96055.83
2018-08-30T14:55:03.261Z,96059.41
2018-08-30T14:57:32.423Z,96062.52
2018-08-30T15:00:01.520Z,96063.66
2018-08-30T15:02:30.632Z,96065.91
2018-08-30T15:04:59.961Z,96067.73
2018-08-30T15:07:28.989Z,96060.39
2018-08-30T15:09:58.073Z,96068.68
2018-08-30T15:12:27.335Z,96066.41
2018-08-30T15:14:56.516Z,96068.61
2018-08-30T15:17:25.689Z,96068.67
2018-08-30T15:19:54.834Z,96073.95
2018-08-30T15:22:24.050Z,96079.41
2018-08-30T15:24:53.241Z,96076.46
2018-08-30T15:27:22.385Z,96076.15
2018-08-30T15:29:51.486Z,96086.55
2018-08-30T15:32:20.702Z,96085.77
2018-08-30T15:34:49.758Z,96078.95
2018-08-30T15:37:18.896Z,96080.30
2018-08-30T15:39:47.973Z,96083.78
2018-08-30T15:42:17.217Z,96080.70
2018-08-30T15:44:46.245Z,96084.03
2018-08-30T15:47:15.473Z,96094.02
2018-08-30T15:49:44.444Z,96095.91
2018-08-30T15:52:13.770Z,96088.99
2018-08-30T15:54:42.832Z,96092.48
2018-08-30T15:57:11.999Z,96087.52
2018-08-30T15:59:41.172Z,96088.69
2018-08-30T16:02:10.362Z,96081.83
2018-08-30T16:04:39.679Z,96086.23
2018-08-30T16:07:08.796Z,96082.34
2018-08-30T16:09:37.897Z,96083.37
2018-08-30T16:12:07.157Z,96085.61
2018-08-30T16:14:36.403Z,96078.25
2018-08-30T16:17:05.609Z,96080.55
2018-08-30T16:19:34.809Z,96074.86
2018-08-30T16:22:03.912Z,96078.91
2018-08-30T16:24:33.028Z,96083.31
2018-08-30T16:27:02.201Z,96079.83
2018-08-30T16:29:31.384Z,96075.52
2018-08-30T16:32:00.492Z,96073.48
2018-08-30T16:34:29.712Z,96070.06
2018-08-30T16:36:58.909Z,96072.67
2018-08-30T16:39:28.005Z,96074.86
2018-08-30T16:41:57.288Z,96074.05
2018-08-30T16:44:26.408Z,96069.02
2018-08-30T16:46:55.576Z,96069.99
2018-08-30T16:49:24.760Z,96073.23
2018-08-30T16:51:53.860Z,96073.48
2018-08-30T16:54:23.097Z,96072.85
2018-08-30T16:56:52.256Z,96071.47
2018-08-30T16:59:21.485Z,96078.59
2018-08-30T17:01:50.459Z,96070.16
2018-08-30T17:04:19.672Z,96065.95
2018-08-30T17:06:48.780Z,96068.96
2018-08-30T17:09:17.908Z,96066.27
2018-08-30T17:11:47.225Z,96068.86
2018-08-30T17:14:16.434Z,96071.72
2018-08-30T17:16:45.645Z,96070.97
2018-08-30T17:19:20.613Z,96066.98
2018-08-30T17:21:49.768Z,96062.36
2018-08-30T17:24:19.100Z,96057.40
2018-08-30T17:26:48.255Z,96062.92
2018-08-30T17:29:17.386Z,96067.89
2018-08-30T17:31:46.588Z,96069.67
2018-08-30T17:34:15.824Z,96077.39
2018-08-30T17:36:44.920Z,96073.50
2018-08-30T17:39:14.146Z,96075.36
2018-08-30T17:41:43.255Z,96064.56
2018-08-30T17:44:12.534Z,96069.51
2018-08-30T17:46:41.663Z,96071.20
2018-08-30T17:49:10.776Z,96066.49
2018-08-30T17:51:39.972Z,96073.57
2018-08-30T17:54:09.256Z,96077.46
2018-08-30T17:56:38.445Z,96079.23
2018-08-30T17:59:07.638Z,96079.41
2018-08-30T18:01:36.918Z,96084.42
2018-08-30T18:04:06.177Z,96084.42
2018-08-30T18:06:35.312Z,96083.95
2018-08-30T18:09:05.766Z,96086.77
2018-08-30T18:11:34.971Z,96090.91
2018-08-30T18:14:04.190Z,96102.00
2018-08-30T18:16:33.358Z,96098.94
2018-08-30T18:19:02.921Z,96093.64
2018-08-30T18:21:32.153Z,96098.03
2018-08-30T18:24:01.538Z,96097.21
2018-08-30T18:26:30.657Z,96107.44
2018-08-30T18:28:59.872Z,96097.60
2018-08-30T18:31:29.077Z,96111.31
2018-08-30T18:33:58.241Z,96103.64
2018-08-30T18:36:27.489Z,96117.58
2018-08-30T18:38:56.614Z,96114.98
2018-08-30T18:41:25.728Z,96115.89
2018-08-30T18:43:54.853Z,96119.47
2018-08-30T18:46:24.032Z,96113.13
2018-08-30T18:48:53.355Z,96119.69
2018-08-30T18:51:22.484Z,96118.56
2018-08-30T18:53:51.585Z,96122.45
2018-08-30T18:56:20.713Z,96118.31
2018-08-30T18:58:49.953Z,96114.42
2018-08-30T19:01:19.055Z,96119.95
2018-08-30T19:03:48.186Z,96120.89
2018-08-30T19:06:17.305Z,96117.96
2018-08-30T19:08:46.496Z,96121.11
2018-08-30T19:11:15.670Z,96123.95
2018-08-30T19:13:44.895Z,96122.64
2018-08-30T19:16:19.453Z,96129.03
2018-08-30T19:18:53.966Z,96128.92
2018-08-30T19:21:23.222Z,96125.69
2018-08-30T19:23:52.326Z,96130.43
2018-08-30T19:26:21.443Z,96137.86
2018-08-30T19:28:50.556Z,96135.23
2018-08-30T19:31:19.739Z,96137.77
2018-08-30T19:33:48.957Z,96133.55
2018-08-30T19:36:23.353Z,96131.66
2018-08-30T19:38:52.448Z,96136.38
2018-08-30T19:41:22.646Z,96135.87
2018-08-30T19:43:52.731Z,96143.66
2018-08-30T19:46:22.872Z,96136.50
2018-08-30T19:48:52.053Z,96137.06
2018-08-30T19:51:21.183Z,96138.06
2018-08-30T19:53:50.362Z,96142.66
2018-08-30T19:56:19.614Z,96139.71
2018-08-30T19:58:48.708Z,96135.38
2018-08-30T20:01:17.820Z,96140.71
2018-08-30T20:03:46.936Z,96142.50
2018-08-30T20:06:16.188Z,96138.52
2018-08-30T20:08:45.345Z,96136.59
2018-08-30T20:11:14.486Z,96142.36
2018-08-30T20:13:43.622Z,96140.55
2018-08-30T20:16:12.873Z,96137.67
2018-08-30T20:18:42.060Z,96143.18
2018-08-30T20:21:11.301Z,96155.05
2018-08-30T20:23:40.443Z,96154.23
2018-08-30T20:26:09.560Z,96152.90
2018-08-30T20:28:38.740Z,96153.64
2018-08-30T20:31:07.963Z,96153.70
2018-08-30T20:33:37.225Z,96154.52
2018-08-30T20:36:06.375Z,96154.83
2018-08-30T20:38:35.562Z,96149.14
2018-08-30T20:41:05.010Z,96145.30
2018-08-30T20:43:34.097Z,96140.17
2018-08-30T20:46:03.292Z,96140.66
2018-08-30T20:48:32.434Z,96143.93
2018-08-30T20:51:01.576Z,96151.19
2018-08-30T20:53:30.715Z,96148.55
2018-08-30T20:55:59.924Z,96146.49
2018-08-30T20:58:29.130Z,96148.43
2018-08-30T21:00:58.292Z,96144.78
2018-08-30T21:03:27.401Z,96147.73
2018-08-30T21:05:56.508Z,96141.03
2018-08-30T21:08:25.782Z,96142.41
2018-08-30T21:10:54.892Z,96131.83
2018-08-30T21:13:24.024Z,96125.75
2018-08-30T21:15:53.112Z,96118.23
2018-08-30T21:18:22.306Z,96124.69
2018-08-30T21:20:51.477Z,96120.36
2018-08-30T21:23:20.662Z,96118.77
2018-08-30T21:25:49.888Z,96116.64
2018-08-30T21:28:19.018Z,96125.61
2018-08-30T21:30:48.112Z,96117.83
2018-08-30T21:33:17.219Z,96114.95
2018-08-30T21:35:46.340Z,96113.28
2018-08-30T21:38:15.483Z,96118.20
2018-08-30T21:40:44.672Z,96122.10
2018-08-30T21:43:13.876Z,96118.09
2018-08-30T21:45:43.158Z,96117.34
2018-08-30T21:48:12.335Z,96123.72
2018-08-30T21:50:41.439Z,96119.13
2018-08-30T21:53:10.560Z,96120.32
2018-08-30T21:55:39.793Z,96119.39
2018-08-30T21:58:08.989Z,96114.59
2018-08-30T22:00:38.101Z,96111.95
2018-08-30T22:03:07.238Z,96114.03
2018-08-30T22:05:36.614Z,96116.78
2018-08-30T22:08:05.948Z,96116.22
2018-08-30T22:10:35.385Z,96113.20
2018-08-30T22:13:04.575Z,96110.08
2018-08-30T22:15:33.748Z,96112.94
2018-08-30T22:18:02.872Z,96106.77
2018-08-30T22:20:31.977Z,96113.21
2018-08-30T22:23:01.116Z,96113.70
2018-08-30T22:25:30.221Z,96107.81
2018-08-30T22:27:59.492Z,96105.88
2018-08-30T22:30:28.736Z,96102.76
2018-08-30T22:32:57.924Z,96094.22
2018-08-30T22:35:27.128Z,96088.54
2018-08-30T22:37:56.316Z,96080.34
2018-08-30T22:40:25.774Z,96087.16
2018-08-30T22:42:54.984Z,96075.92
2018-08-30T22:45:24.115Z,96079.41
2018-08-30T22:47:53.324Z,96071.45
2018-08-30T22:50:22.414Z,96078.97
2018-08-30T22:52:51.620Z,96079.23
2018-08-30T22:55:20.728Z,96076.33
2018-08-30T22:57:50.181Z,96076.33
2018-08-30T23:00:19.381Z,96074.72
2018-08-30T23:02:48.492Z,96070.52
2018-08-30T23:05:17.737Z,96064.01
2018-08-30T23:07:46.885Z,96069.25
2018-08-30T23:10:17.227Z,96065.38
2018-08-30T23:12:46.425Z,96058.50
2018-08-30T23:15:15.545Z,96052.25
2018-08-30T23:17:44.699Z,96041.30
2018-08-30T23:20:13.837Z,96040.34
2018-08-30T23:22:42.933Z,96038.59
2018-08-30T23:25:12.107Z,96037.84
2018-08-30T23:27:41.341Z,96039.11
2018-08-30T23:30:10.543Z,96039.48
2018-08-30T23:32:39.657Z,96041.86
2018-08-30T23:35:08.907Z,96043.34
2018-08-30T23:37:38.057Z,96041.84
2018-08-30T23:40:08.217Z,96048.27
2018-08-30T23:42:37.385Z,96041.39
2018-08-30T23:45:06.569Z,96044.23
2018-08-30T23:47:35.797Z,96039.21
2018-08-30T23:50:05.085Z,96038.39
2018-08-30T23:52:34.324Z,96036.72
2018-08-30T23:55:03.823Z,96035.09
2018-08-30T23:57:32.958Z,96031.70
